createdAt,value
2017-06-16T00:01:51.405Z,99.99
2017-06-16T00:04:24.198Z,99.99
2017-06-16T00:06:34.147Z,99.99
2017-06-16T00:08:49.910Z,99.99
2017-06-16T00:12:39.043Z,99.99
2017-06-16T00:15:04.249Z,99.99
2017-06-16T00:17:28.468Z,99.99
2017-06-16T00:19:52.678Z,99.99
2017-06-16T00:22:16.882Z,99.99
2017-06-16T00:24:41.058Z,99.99
2017-06-16T00:27:06.242Z,99.99
2017-06-16T00:29:31.460Z,99.99
2017-06-16T00:31:47.216Z,99.99
2017-06-16T00:34:27.346Z,99.99
2017-06-16T00:36:51.502Z,99.99
2017-06-16T00:39:09.242Z,99.99
2017-06-16T00:41:33.441Z,99.99
2017-06-16T00:43:51.191Z,99.99
2017-06-16T00:46:15.376Z,99.99
2017-06-16T00:48:41.519Z,99.99
2017-06-16T00:51:07.665Z,99.99
2017-06-16T00:53:38.341Z,99.99
2017-06-16T00:56:02.530Z,99.99
2017-06-16T00:58:03.928Z,99.99
2017-06-16T01:00:25.741Z,99.99
2017-06-16T01:02:35.663Z,99.99
2017-06-16T01:05:00.058Z,99.99
2017-06-16T01:07:39.003Z,99.99
2017-06-16T01:09:40.428Z,99.99
2017-06-16T01:12:05.616Z,99.99
2017-06-16T01:14:37.736Z,99.99
2017-06-16T01:16:30.698Z,99.99
2017-06-16T01:18:56.892Z,99.99
2017-06-16T01:21:21.052Z,99.99
2017-06-16T01:23:45.243Z,99.99
2017-06-16T01:26:00.930Z,99.99
2017-06-16T01:28:08.192Z,99.99
2017-06-16T01:30:21.952Z,99.99
2017-06-16T01:32:47.059Z,99.99
2017-06-16T01:35:11.210Z,99.99
2017-06-16T01:37:41.957Z,99.99
2017-06-16T01:40:06.083Z,99.99
2017-06-16T01:42:31.231Z,99.99
2017-06-16T01:44:55.369Z,99.99
2017-06-16T01:47:11.044Z,99.99
2017-06-16T01:49:27.737Z,99.99
2017-06-16T01:51:53.878Z,99.99
2017-06-16T01:54:17.985Z,99.99
2017-06-16T01:56:58.964Z,99.99
2017-06-16T01:59:14.664Z,99.99
2017-06-16T02:01:39.801Z,99.99
2017-06-16T02:04:05.937Z,99.99
2017-06-16T02:06:30.087Z,99.99
2017-06-16T02:08:55.224Z,99.99
2017-06-16T02:11:25.966Z,99.99
2017-06-16T02:13:52.040Z,99.99
2017-06-16T02:16:16.171Z,99.99
2017-06-16T02:18:40.288Z,99.99
2017-06-16T02:21:05.396Z,99.99
2017-06-16T02:23:29.480Z,99.99
2017-06-16T02:25:53.616Z,99.99
2017-06-16T02:28:18.755Z,99.99
2017-06-16T02:30:42.882Z,99.99
2017-06-16T02:33:06.991Z,99.99
2017-06-16T02:35:31.139Z,99.99
2017-06-16T02:37:47.836Z,99.99
2017-06-16T02:40:11.932Z,99.99
2017-06-16T02:42:36.004Z,99.99
2017-06-16T02:45:00.109Z,99.99
2017-06-16T02:47:23.465Z,99.99
2017-06-16T02:49:47.581Z,99.99
2017-06-16T02:52:11.693Z,99.99
2017-06-16T02:54:36.808Z,99.99
2017-06-16T02:57:00.945Z,98.92
2017-06-16T02:59:25.084Z,96.99
2017-06-16T03:01:57.977Z,96.51
2017-06-16T03:04:14.677Z,94.48
2017-06-16T03:06:38.798Z,92.75
2017-06-16T03:08:40.197Z,92.08
2017-06-16T03:11:04.348Z,92.75
2017-06-16T03:13:21.053Z,90.82
2017-06-16T03:15:54.019Z,89.76
2017-06-16T03:18:08.028Z,88.41
2017-06-16T03:20:32.130Z,87.83
2017-06-16T03:22:47.798Z,88.65
2017-06-16T03:25:11.912Z,89.43
2017-06-16T03:27:36.523Z,89.23
2017-06-16T03:30:00.595Z,88.12
2017-06-16T03:32:10.522Z,87.45
2017-06-16T03:34:35.640Z,87.35
2017-06-16T03:36:59.731Z,86.58
2017-06-16T03:39:15.380Z,86.15
2017-06-16T03:41:41.452Z,86.73
2017-06-16T03:43:58.056Z,85.96
2017-06-16T03:46:23.118Z,85.28
2017-06-16T03:48:47.230Z,85.38
2017-06-16T03:51:02.894Z,84.7
2017-06-16T03:53:18.513Z,83.59
2017-06-16T03:55:43.609Z,83.2
2017-06-16T03:58:09.723Z,83.36
2017-06-16T04:00:26.385Z,82.49
2017-06-16T04:02:49.854Z,82.01
2017-06-16T04:05:13.949Z,82.87
2017-06-16T04:07:38.013Z,80.18
2017-06-16T04:10:08.858Z,79.02
2017-06-16T04:12:32.938Z,80.08
2017-06-16T04:14:57.047Z,79.44
2017-06-16T04:17:22.138Z,79.83
2017-06-16T04:19:53.854Z,78.92
2017-06-16T04:22:01.088Z,80.66
2017-06-16T04:24:25.193Z,79.98
2017-06-16T04:26:47.861Z,79.79
2017-06-16T04:29:04.557Z,78.48
2017-06-16T04:31:36.362Z,78.19
2017-06-16T04:34:07.364Z,79.21
2017-06-16T04:36:29.418Z,77.51
2017-06-16T04:38:53.558Z,77.67
2017-06-16T04:41:17.692Z,77.13
2017-06-16T04:43:41.835Z,76.01
2017-06-16T04:46:06.971Z,75.43
2017-06-16T04:48:31.140Z,74.82
2017-06-16T04:50:47.865Z,74.85
2017-06-16T04:53:13.035Z,74.02
2017-06-16T04:55:28.741Z,72
2017-06-16T04:57:44.446Z,67.53
2017-06-16T05:00:00.242Z,58.64
2017-06-16T05:03:51.821Z,56.35
2017-06-16T05:06:16.356Z,60.72
2017-06-16T05:08:56.593Z,62.3
2017-06-16T05:11:13.606Z,59.88
2017-06-16T05:13:29.623Z,52.5
2017-06-16T05:15:45.717Z,38.84
2017-06-16T05:18:08.616Z,32.18
2017-06-16T05:20:26.161Z,27.96
2017-06-16T05:22:53.424Z,24.38
2017-06-16T05:25:10.445Z,21.3
2017-06-16T05:27:28.702Z,20.12
2017-06-16T05:29:56.669Z,18.6
2017-06-16T05:32:23.820Z,22.33
2017-06-16T05:36:26.796Z,20.49
2017-06-16T05:39:00.160Z,16.72
2017-06-16T05:43:18.167Z,17.58
2017-06-16T05:45:46.964Z,15.15
2017-06-16T05:47:59.058Z,15.34
2017-06-16T05:51:53.771Z,14.18
2017-06-16T05:54:22.784Z,15.92
2017-06-16T05:56:49.799Z,12.81
2017-06-16T06:00:44.179Z,15.05
2017-06-16T06:03:27.931Z,17
2017-06-16T06:05:56.921Z,21.32
2017-06-16T06:09:51.369Z,25.73
2017-06-16T06:13:36.841Z,30.04
2017-06-16T06:17:38.628Z,36.31
2017-06-16T06:21:40.083Z,26.71
2017-06-16T06:25:33.557Z,22.75
2017-06-16T06:29:36.115Z,19.88
2017-06-16T06:33:38.195Z,25.81
2017-06-16T06:35:56.090Z,25.27
2017-06-16T06:39:59.101Z,28.77
2017-06-16T06:44:02.001Z,31.24
2017-06-16T06:48:04.636Z,29.44
2017-06-16T06:50:30.771Z,27.77
2017-06-16T06:54:32.634Z,30.47
2017-06-16T06:58:34.844Z,29.73
2017-06-16T07:01:00.099Z,27.77
2017-06-16T07:05:01.718Z,27.91
2017-06-16T07:10:31.783Z,26.45
2017-06-16T07:14:24.899Z,30.46
2017-06-16T07:16:51.571Z,30.47
2017-06-16T07:20:53.440Z,28.95
2017-06-16T07:24:54.760Z,27.89
2017-06-16T07:27:27.529Z,28.09
2017-06-16T07:29:53.038Z,30.78
2017-06-16T07:33:37.222Z,30.88
2017-06-16T07:36:11.493Z,29.63
2017-06-16T07:38:36.935Z,29.25
2017-06-16T07:41:10.507Z,30.12
2017-06-16T07:43:43.510Z,28.61
2017-06-16T07:48:01.075Z,28.52
2017-06-16T07:52:03.030Z,29.94
2017-06-16T07:57:40.287Z,32.34
2017-06-16T08:03:09.476Z,30.99
2017-06-16T08:05:32.691Z,31.74
2017-06-16T08:07:43.601Z,31.48
2017-06-16T08:09:53.984Z,28.59
2017-06-16T08:13:55.510Z,25.55
2017-06-16T08:17:57.090Z,29
2017-06-16T08:23:18.376Z,29.1
2017-06-16T08:27:20.005Z,25.9
2017-06-16T08:32:58.225Z,25.73
2017-06-16T08:37:00.397Z,25.54
2017-06-16T08:41:02.623Z,25.13
2017-06-16T08:45:04.289Z,23.22
2017-06-16T08:47:21.652Z,23.65
2017-06-16T08:51:28.469Z,27.11
2017-06-16T08:55:21.544Z,25.23
2017-06-16T08:59:23.144Z,24.81
2017-06-16T09:03:16.204Z,24.24
2017-06-16T09:05:58.939Z,25.24
2017-06-16T09:08:40.437Z,22.99
2017-06-16T09:12:33.530Z,26.08
2017-06-16T09:16:26.606Z,25.08
2017-06-16T09:18:59.325Z,23.73
2017-06-16T09:23:17.622Z,21.74
2017-06-16T09:27:10.645Z,27.63
2017-06-16T09:31:12.643Z,26.25
2017-06-16T09:35:14.088Z,27.08
2017-06-16T09:39:15.505Z,28.63
2017-06-16T09:43:16.816Z,27.28
2017-06-16T09:46:54.770Z,26.24
2017-06-16T09:50:56.133Z,28.69
2017-06-16T09:53:21.633Z,27.08
2017-06-16T09:57:14.344Z,27.74
2017-06-16T09:59:47.578Z,28.13
2017-06-16T10:03:48.810Z,30.88
2017-06-16T10:06:16.218Z,34.21
2017-06-16T10:10:17.285Z,33.46
2017-06-16T10:14:18.288Z,30.9
2017-06-16T10:18:19.806Z,33.75
2017-06-16T10:20:20.518Z,34.31
2017-06-16T10:22:35.543Z,34.22
2017-06-16T10:25:00.643Z,34.5
2017-06-16T10:27:25.705Z,34.71
2017-06-16T10:29:50.763Z,35.26
2017-06-16T10:32:15.809Z,35.46
2017-06-16T10:34:40.822Z,35.25
2017-06-16T10:36:57.298Z,34.69
2017-06-16T10:39:22.269Z,33.93
2017-06-16T10:41:30.283Z,33.92
2017-06-16T10:43:46.786Z,34.59
2017-06-16T10:46:11.768Z,33.83
2017-06-16T10:48:13.394Z,34.69
2017-06-16T10:50:29.865Z,35.18
2017-06-16T10:52:46.479Z,36.51
2017-06-16T10:55:11.462Z,37.08
2017-06-16T10:57:36.407Z,35.93
2017-06-16T11:00:01.355Z,37.84
2017-06-16T11:02:02.930Z,37.27
2017-06-16T11:04:27.847Z,36.59
2017-06-16T11:06:52.744Z,36.33
2017-06-16T11:09:17.654Z,36.12
2017-06-16T11:11:42.576Z,37.46
2017-06-16T11:13:58.975Z,36.65
2017-06-16T11:16:23.865Z,35.1
2017-06-16T11:18:40.339Z,35.25
2017-06-16T11:20:48.348Z,35.44
2017-06-16T11:22:56.240Z,35.16
2017-06-16T11:25:21.139Z,35.99
2017-06-16T11:27:31.280Z,36.3
2017-06-16T11:29:47.684Z,37.24
2017-06-16T11:32:12.585Z,36.75
2017-06-16T11:34:37.499Z,36.18
2017-06-16T11:36:53.890Z,36.63
2017-06-16T11:39:18.687Z,36.85
2017-06-16T11:41:43.498Z,36.36
2017-06-16T11:44:08.384Z,36.36
2017-06-16T11:46:33.290Z,37.04
2017-06-16T11:48:58.084Z,36.55
2017-06-16T11:51:22.989Z,37.43
2017-06-16T11:53:47.791Z,37.04
2017-06-16T11:56:12.551Z,36.1
2017-06-16T11:58:37.346Z,35.03
2017-06-16T12:01:02.111Z,35.23
2017-06-16T12:03:26.896Z,34.74
2017-06-16T12:05:34.745Z,37.24
2017-06-16T12:07:51.079Z,37.12
2017-06-16T12:10:15.883Z,36.55
2017-06-16T12:12:40.663Z,36.2
2017-06-16T12:14:56.979Z,36.36
2017-06-16T12:17:21.761Z,37.51
2017-06-16T12:20:02.075Z,38.81
2017-06-16T12:22:33.576Z,38.91
2017-06-16T12:24:58.395Z,36.77
2017-06-16T12:27:14.815Z,37
2017-06-16T12:29:39.699Z,36.06
2017-06-16T12:32:04.550Z,35.86
2017-06-16T12:34:30.447Z,35.2
2017-06-16T12:36:46.862Z,35.77
2017-06-16T12:39:11.771Z,34.88
2017-06-16T12:41:21.947Z,36.25
2017-06-16T12:43:47.877Z,34.29
2017-06-16T12:46:04.301Z,34.97
2017-06-16T12:48:20.691Z,36.41
2017-06-16T12:50:38.119Z,35.47
2017-06-16T12:53:04.032Z,35.86
2017-06-16T12:55:28.957Z,33.14
2017-06-16T12:57:45.368Z,33.64
2017-06-16T13:00:10.303Z,33.34
2017-06-16T13:02:35.245Z,34.21
2017-06-16T13:05:00.182Z,31.8
2017-06-16T13:07:01.789Z,33.46
2017-06-16T13:09:26.735Z,31.87
2017-06-16T13:11:51.695Z,33.95
2017-06-16T13:14:09.157Z,30.54
2017-06-16T13:16:34.111Z,32.76
2017-06-16T13:18:59.105Z,33.06
2017-06-16T13:21:24.054Z,33.72
2017-06-16T13:23:49.028Z,32.29
2017-06-16T13:26:05.490Z,31.59
2017-06-16T13:28:30.435Z,30.62
2017-06-16T13:30:32.537Z,32.84
2017-06-16T13:32:34.593Z,31.19
2017-06-16T13:34:59.538Z,32.06
2017-06-16T13:37:15.958Z,30.87
2017-06-16T13:39:40.845Z,31.27
2017-06-16T13:42:05.746Z,31.37
2017-06-16T13:44:15.958Z,31.88
2017-06-16T13:46:40.872Z,31.2
2017-06-16T13:49:05.775Z,32.53
2017-06-16T13:51:30.788Z,33.88
2017-06-16T13:53:55.790Z,33.28
2017-06-16T13:56:20.694Z,33.07
2017-06-16T13:58:45.567Z,34.14
2017-06-16T14:01:10.453Z,31.84
2017-06-16T14:03:35.328Z,34.05
2017-06-16T14:05:36.908Z,32.49
2017-06-16T14:08:01.770Z,33.44
2017-06-16T14:10:26.616Z,33.48
2017-06-16T14:12:51.417Z,33.28
2017-06-16T14:15:07.751Z,33.18
2017-06-16T14:17:32.573Z,31.84
2017-06-16T14:19:57.394Z,34.08
2017-06-16T14:22:22.219Z,33.2
2017-06-16T14:24:38.554Z,32.7
2017-06-16T14:27:03.342Z,32.2
2017-06-16T14:29:28.137Z,32.6
2017-06-16T14:31:52.938Z,31.92
2017-06-16T14:34:17.772Z,32.87
2017-06-16T14:36:42.610Z,33.07
2017-06-16T14:39:07.400Z,33.36
2017-06-16T14:41:32.183Z,33.38
2017-06-16T14:43:56.908Z,33.26
2017-06-16T14:45:58.440Z,34.69
2017-06-16T14:48:23.238Z,34.8
2017-06-16T14:50:47.972Z,34.61
2017-06-16T14:53:12.733Z,34.25
2017-06-16T14:55:37.485Z,32
2017-06-16T14:57:39.062Z,33.26
2017-06-16T15:00:03.845Z,34.22
2017-06-16T15:02:28.619Z,33.38
2017-06-16T15:04:44.920Z,31.93
2017-06-16T15:07:09.709Z,31.41
2017-06-16T15:09:19.840Z,31.6
2017-06-16T15:11:36.154Z,31.81
2017-06-16T15:14:00.946Z,33.34
2017-06-16T15:16:25.721Z,33.72
2017-06-16T15:18:50.447Z,34.52
2017-06-16T15:21:15.143Z,33.56
2017-06-16T15:23:39.927Z,32.57
2017-06-16T15:25:56.192Z,33.07
2017-06-16T15:28:12.479Z,33.14
2017-06-16T15:30:37.240Z,33.95
2017-06-16T15:33:02.011Z,31.81
2017-06-16T15:35:12.148Z,32.71
2017-06-16T15:37:36.942Z,31.93
2017-06-16T15:39:53.238Z,31.71
2017-06-16T15:42:03.863Z,32.29
2017-06-16T15:44:28.632Z,33.26
2017-06-16T15:46:53.345Z,33.75
2017-06-16T15:49:18.092Z,33.83
2017-06-16T15:51:42.808Z,33.34
2017-06-16T15:54:07.556Z,34.3
2017-06-16T15:56:09.596Z,34.79
2017-06-16T15:58:25.834Z,33.44
2017-06-16T16:00:50.556Z,33.44
2017-06-16T16:04:51.625Z,33.91
2017-06-16T16:07:16.377Z,33.91
2017-06-16T16:09:41.097Z,34.19
2017-06-16T16:12:05.813Z,34.59
2017-06-16T16:14:30.577Z,34.59
2017-06-16T16:16:46.884Z,33.15
2017-06-16T16:19:11.560Z,33.12
2017-06-16T16:21:27.777Z,33.69
2017-06-16T16:23:43.981Z,34.93
2017-06-16T16:26:08.611Z,35.03
2017-06-16T16:28:33.242Z,35.8
2017-06-16T16:30:59.881Z,36.68
2017-06-16T16:33:24.481Z,37.24
2017-06-16T16:35:50.109Z,36.76
2017-06-16T16:38:15.728Z,36.48
2017-06-16T16:40:40.372Z,36.02
2017-06-16T16:43:04.981Z,36.1
2017-06-16T16:45:30.622Z,36.58
2017-06-16T16:47:55.204Z,36.19
2017-06-16T16:50:19.908Z,36.68
2017-06-16T16:52:44.504Z,37.07
2017-06-16T16:55:09.094Z,35.92
2017-06-16T16:57:25.300Z,35.33
2017-06-16T16:59:49.988Z,35.74
2017-06-16T17:02:14.578Z,36.04
2017-06-16T17:04:39.174Z,36.6
2017-06-16T17:07:03.865Z,35.72
2017-06-16T17:09:28.462Z,36.19
2017-06-16T17:11:53.172Z,37.35
2017-06-16T17:14:17.862Z,37.35
2017-06-16T17:16:34.058Z,37.92
2017-06-16T17:18:58.644Z,38.13
2017-06-16T17:21:23.348Z,37.37
2017-06-16T17:23:49.993Z,37.26
2017-06-16T17:26:14.675Z,37.35
2017-06-16T17:28:30.921Z,38.13
2017-06-16T17:30:55.578Z,38.09
2017-06-16T17:33:11.675Z,39.08
2017-06-16T17:35:27.876Z,40.54
2017-06-16T17:37:53.485Z,39.76
2017-06-16T17:40:04.088Z,40.42
2017-06-16T17:42:28.646Z,40.42
2017-06-16T17:44:44.772Z,40.21
2017-06-16T17:47:09.330Z,39.45
2017-06-16T17:49:33.823Z,39.72
2017-06-16T17:51:58.414Z,40.5
2017-06-16T17:54:23.011Z,40.71
2017-06-16T17:56:39.114Z,40.33
2017-06-16T18:00:31.052Z,38.96
2017-06-16T18:02:56.561Z,40.42
2017-06-16T18:05:21.153Z,40.5
2017-06-16T18:07:37.246Z,40.4
2017-06-16T18:10:01.685Z,40
2017-06-16T18:12:12.209Z,40.77
2017-06-16T18:14:36.794Z,40.38
2017-06-16T18:16:52.785Z,41.47
2017-06-16T18:19:19.253Z,40.77
2017-06-16T18:21:43.718Z,41.25
2017-06-16T18:24:10.263Z,41.16
2017-06-16T18:26:34.731Z,40.58
2017-06-16T18:28:42.349Z,41.25
2017-06-16T18:31:06.832Z,41.64
2017-06-16T18:33:23.858Z,41.25
2017-06-16T18:35:50.290Z,41.83
2017-06-16T18:38:06.277Z,41.93
2017-06-16T18:40:30.764Z,41.62
2017-06-16T18:42:56.172Z,42.4
2017-06-16T18:44:57.642Z,42.3
2017-06-16T18:47:22.133Z,42.49
2017-06-16T18:49:46.627Z,43.27
2017-06-16T18:52:04.655Z,42.59
2017-06-16T18:54:29.149Z,42.96
2017-06-16T18:56:32.683Z,43.92
2017-06-16T18:59:05.908Z,43.34
2017-06-16T19:01:21.853Z,43.54
2017-06-16T19:03:23.340Z,43.34
2017-06-16T19:05:49.715Z,43.46
2017-06-16T19:08:20.623Z,43.85
2017-06-16T19:10:44.998Z,43.44
2017-06-16T19:13:16.111Z,44.5
2017-06-16T19:15:38.664Z,43.63
2017-06-16T19:17:40.131Z,44.4
2017-06-16T19:20:05.517Z,44.12
2017-06-16T19:22:21.458Z,44.7
2017-06-16T19:24:45.812Z,44.5
2017-06-16T19:27:11.119Z,44.4
2017-06-16T19:29:50.423Z,44.6
2017-06-16T19:32:16.793Z,45.54
2017-06-16T19:34:41.127Z,44.96
2017-06-16T19:36:56.994Z,45.45
2017-06-16T19:39:04.354Z,44.96
2017-06-16T19:41:28.691Z,45.06
2017-06-16T19:43:53.011Z,45.83
2017-06-16T19:46:17.342Z,45.16
2017-06-16T19:48:42.672Z,45.16
2017-06-16T19:51:06.987Z,46.22
2017-06-16T19:53:31.342Z,45.74
2017-06-16T19:55:57.633Z,45.83
2017-06-16T19:58:29.935Z,45.25
2017-06-16T20:00:55.266Z,45.83
2017-06-16T20:03:19.655Z,45.83
2017-06-16T20:05:44.002Z,45.83
2017-06-16T20:08:14.945Z,46.1
2017-06-16T20:10:41.274Z,45.93
2017-06-16T20:13:12.441Z,46.88
2017-06-16T20:15:37.782Z,46.49
2017-06-16T20:18:02.141Z,46.3
2017-06-16T20:20:32.942Z,46.68
2017-06-16T20:22:34.378Z,46.58
2017-06-16T20:24:58.695Z,47.33
2017-06-16T20:27:22.989Z,47.43
2017-06-16T20:29:48.256Z,46.85
2017-06-16T20:32:12.560Z,47.72
2017-06-16T20:34:36.830Z,47.72
2017-06-16T20:37:01.113Z,47.81
2017-06-16T20:39:03.535Z,47.63
2017-06-16T20:41:28.842Z,47.43
2017-06-16T20:43:54.127Z,48.11
2017-06-16T20:46:20.412Z,48.01
2017-06-16T20:48:53.359Z,48.95
2017-06-16T20:51:18.616Z,48.95
2017-06-16T20:53:44.861Z,49.15
2017-06-16T20:56:00.139Z,49.05
2017-06-16T20:58:16.913Z,48.95
2017-06-16T21:00:33.703Z,49.05
2017-06-16T21:02:59.922Z,49.34
2017-06-16T21:05:26.140Z,49.24
2017-06-16T21:07:50.356Z,49.53
2017-06-16T21:10:07.136Z,48.95
2017-06-16T21:12:31.622Z,49.05
2017-06-16T21:15:02.623Z,49.63
2017-06-16T21:17:27.833Z,49.44
2017-06-16T21:19:43.641Z,49.05
2017-06-16T21:22:07.831Z,49.73
2017-06-16T21:24:39.641Z,49.92
2017-06-16T21:27:04.854Z,49.05
2017-06-16T21:29:35.651Z,49.37
2017-06-16T21:31:59.837Z,48.95
2017-06-16T21:34:26.038Z,48.88
2017-06-16T21:36:28.477Z,49.27
2017-06-16T21:38:52.753Z,48.79
2017-06-16T21:41:18.957Z,48.39
2017-06-16T21:43:43.196Z,48.69
2017-06-16T21:46:16.278Z,49.63
2017-06-16T21:48:33.046Z,49.63
2017-06-16T21:50:58.254Z,49.63
2017-06-16T21:53:22.482Z,49.63
2017-06-16T21:55:23.934Z,50.31
2017-06-16T21:57:48.194Z,50.57
2017-06-16T21:59:49.562Z,50.5
2017-06-16T22:02:14.789Z,50.11
2017-06-16T22:04:41.032Z,49.63
2017-06-16T22:07:06.258Z,49.73
2017-06-16T22:09:30.495Z,49.07
2017-06-16T22:11:56.708Z,49.92
2017-06-16T22:14:13.481Z,50.01
2017-06-16T22:16:39.716Z,49.53
2017-06-16T22:19:10.934Z,49.73
2017-06-16T22:21:35.179Z,49.92
2017-06-16T22:24:01.406Z,50.21
2017-06-16T22:26:25.620Z,50.5
2017-06-16T22:28:50.817Z,50.09
2017-06-16T22:31:14.996Z,50.74
2017-06-16T22:33:41.215Z,50.35
2017-06-16T22:36:12.956Z,50.42
2017-06-16T22:38:43.911Z,50.23
2017-06-16T22:41:08.120Z,50.35
2017-06-16T22:43:40.917Z,50.13
2017-06-16T22:46:05.054Z,50.9
2017-06-16T22:48:20.746Z,51.48
2017-06-16T22:50:46.899Z,51.68
2017-06-16T22:53:04.595Z,51.29
2017-06-16T22:55:21.300Z,51.58
2017-06-16T22:57:46.378Z,51.56
2017-06-16T23:00:11.527Z,51.26
2017-06-16T23:02:36.595Z,52.4
2017-06-16T23:05:01.731Z,52.61
2017-06-16T23:07:25.848Z,52.42
2017-06-16T23:09:51.966Z,52.42
2017-06-16T23:12:07.632Z,52.13
2017-06-16T23:14:39.920Z,53
2017-06-16T23:16:57.598Z,53.09
2017-06-16T23:19:13.263Z,53.58
2017-06-16T23:21:45.047Z,53.74
2017-06-16T23:23:46.517Z,53.65
2017-06-16T23:26:10.674Z,53.84
2017-06-16T23:28:19.968Z,53.91
2017-06-16T23:30:36.594Z,55.04
2017-06-16T23:33:02.634Z,54.68
2017-06-16T23:35:27.659Z,54.49
2017-06-16T23:37:58.242Z,54.3
2017-06-16T23:40:30.247Z,54.1
2017-06-16T23:42:55.306Z,54.49
2017-06-16T23:45:20.385Z,54.87
2017-06-16T23:47:52.249Z,55.23
2017-06-16T23:50:18.258Z,54.75
2017-06-16T23:52:44.310Z,55.71
2017-06-16T23:54:57.571Z,55.81
2017-06-16T23:57:05.754Z,55.49
2017-06-16T23:59:21.339Z,55.43
